createdAt,value
2022-11-03T00:00:46.469Z,11.35
2022-11-03T00:01:46.652Z,11.26
2022-11-03T00:02:46.498Z,11.30
2022-11-03T00:03:46.439Z,11.33
2022-11-03T00:04:46.403Z,11.30
2022-11-03T00:05:46.368Z,11.25
2022-11-03T00:06:46.357Z,11.26
2022-11-03T00:07:46.368Z,11.29
2022-11-03T00:08:46.336Z,11.23
2022-11-03T00:09:46.356Z,11.23
2022-11-03T00:10:46.317Z,11.32
2022-11-03T00:11:46.330Z,11.27
2022-11-03T00:12:46.314Z,11.25
2022-11-03T00:13:46.303Z,11.25
2022-11-03T00:14:46.268Z,11.25
2022-11-03T00:15:46.299Z,11.30
2022-11-03T00:16:46.275Z,11.22
2022-11-03T00:17:46.252Z,11.33
2022-11-03T00:18:46.244Z,11.29
2022-11-03T00:19:46.224Z,11.23
2022-11-03T00:20:46.241Z,11.23
2022-11-03T00:21:46.199Z,11.23
2022-11-03T00:22:46.205Z,11.22
2022-11-03T00:23:46.183Z,11.25
2022-11-03T00:24:46.160Z,11.25
2022-11-03T00:25:46.183Z,11.26
2022-11-03T00:26:46.139Z,11.29
2022-11-03T00:27:46.145Z,11.26
2022-11-03T00:28:46.130Z,11.26
2022-11-03T00:29:46.134Z,11.29
2022-11-03T00:30:46.113Z,11.32
2022-11-03T00:31:46.109Z,11.23
2022-11-03T00:32:46.110Z,11.32
2022-11-03T00:33:46.058Z,11.40
2022-11-03T00:34:46.071Z,11.35
2022-11-03T00:35:46.051Z,11.41
2022-11-03T00:36:46.035Z,11.37
2022-11-03T00:37:46.029Z,11.43
2022-11-03T00:38:46.011Z,11.43
2022-11-03T00:39:46.027Z,11.43
2022-11-03T00:40:45.987Z,11.47
2022-11-03T00:41:45.969Z,11.35
2022-11-03T00:42:45.975Z,11.40
2022-11-03T00:43:45.946Z,11.32
2022-11-03T00:44:46.075Z,11.37
2022-11-03T00:45:45.960Z,11.40
2022-11-03T00:46:45.925Z,11.41
2022-11-03T00:47:45.949Z,11.41
2022-11-03T00:48:45.904Z,11.43
2022-11-03T00:49:45.914Z,11.43
2022-11-03T00:50:45.870Z,11.44
2022-11-03T00:51:45.884Z,11.48
2022-11-03T00:52:45.857Z,11.44
2022-11-03T00:53:45.846Z,11.41
2022-11-03T00:54:46.609Z,11.43
2022-11-03T00:55:45.824Z,11.44
2022-11-03T00:56:45.820Z,11.43
2022-11-03T00:57:45.797Z,11.47
2022-11-03T00:58:45.804Z,11.47
2022-11-03T00:59:45.803Z,11.44
2022-11-03T01:00:45.827Z,11.47
2022-11-03T01:01:47.777Z,11.35
2022-11-03T01:02:45.738Z,11.36
2022-11-03T01:03:45.744Z,11.37
2022-11-03T01:04:45.714Z,11.32
2022-11-03T01:05:45.722Z,11.32
2022-11-03T01:06:45.693Z,11.26
2022-11-03T01:07:45.803Z,11.35
2022-11-03T01:08:45.698Z,11.30
2022-11-03T01:09:45.677Z,11.33
2022-11-03T01:10:45.648Z,11.32
2022-11-03T01:11:45.643Z,11.36
2022-11-03T01:12:45.652Z,11.30
2022-11-03T01:13:45.662Z,11.26
2022-11-03T01:14:45.621Z,11.37
2022-11-03T01:15:45.620Z,11.27
2022-11-03T01:16:45.624Z,11.25
2022-11-03T01:17:45.584Z,11.25
2022-11-03T01:18:45.592Z,11.23
2022-11-03T01:19:45.573Z,11.27
2022-11-03T01:20:45.595Z,11.29
2022-11-03T01:21:45.554Z,11.23
2022-11-03T01:22:45.560Z,11.19
2022-11-03T01:23:45.516Z,11.19
2022-11-03T01:24:45.500Z,11.18
2022-11-03T01:25:45.488Z,11.19
2022-11-03T01:26:45.505Z,11.18
2022-11-03T01:27:45.460Z,11.18
2022-11-03T01:28:45.492Z,11.22
2022-11-03T01:29:45.548Z,11.18
2022-11-03T01:30:45.436Z,11.17
2022-11-03T01:31:45.424Z,11.14
2022-11-03T01:32:45.430Z,11.14
2022-11-03T01:33:45.404Z,11.15
2022-11-03T01:34:45.411Z,11.11
2022-11-03T01:35:45.406Z,11.12
2022-11-03T01:36:45.364Z,11.08
2022-11-03T01:37:45.356Z,11.17
2022-11-03T01:38:45.336Z,11.10
2022-11-03T01:39:45.377Z,11.18
2022-11-03T01:40:45.328Z,11.02
2022-11-03T01:41:45.306Z,11.19
2022-11-03T01:42:45.307Z,11.15
2022-11-03T01:43:45.282Z,11.12
2022-11-03T01:44:45.274Z,11.07
2022-11-03T01:45:45.299Z,11.02
2022-11-03T01:46:45.273Z,11.12
2022-11-03T01:47:45.300Z,11.07
2022-11-03T01:48:45.261Z,11.04
2022-11-03T01:49:45.254Z,11.11
2022-11-03T01:50:45.205Z,11.11
2022-11-03T01:51:45.214Z,11.08
2022-11-03T01:52:45.210Z,11.15
2022-11-03T01:53:45.188Z,11.14
2022-11-03T01:54:45.194Z,11.12
2022-11-03T01:55:45.159Z,11.15
2022-11-03T01:56:45.143Z,11.17
2022-11-03T01:57:45.155Z,11.02
2022-11-03T01:58:45.154Z,11.04
2022-11-03T01:59:45.112Z,11.18
2022-11-03T02:00:45.163Z,11.04
2022-11-03T02:01:45.234Z,11.11
2022-11-03T02:02:45.083Z,11.05
2022-11-03T02:03:45.079Z,11.05
2022-11-03T02:04:45.067Z,11.04
2022-11-03T02:05:45.049Z,11.05
2022-11-03T02:06:45.034Z,11.08
2022-11-03T02:07:45.018Z,11.07
2022-11-03T02:08:45.042Z,10.99
2022-11-03T02:09:45.015Z,11.12
2022-11-03T02:10:45.016Z,11.07
2022-11-03T02:11:45.030Z,11.04
2022-11-03T02:12:44.969Z,11.02
2022-11-03T02:13:44.970Z,11.10
2022-11-03T02:14:44.950Z,10.97
2022-11-03T02:15:44.955Z,10.89
2022-11-03T02:16:47.857Z,10.92
2022-11-03T02:17:44.924Z,10.94
2022-11-03T02:18:44.896Z,10.87
2022-11-03T02:19:44.914Z,10.87
2022-11-03T02:20:44.917Z,10.89
2022-11-03T02:21:44.893Z,10.93
2022-11-03T02:22:44.860Z,10.97
2022-11-03T02:23:44.851Z,10.94
2022-11-03T02:24:48.558Z,10.89
2022-11-03T02:25:44.827Z,10.89
2022-11-03T02:26:44.823Z,10.94
2022-11-03T02:27:44.839Z,10.92
2022-11-03T02:28:44.857Z,10.86
2022-11-03T02:29:44.778Z,10.92
2022-11-03T02:30:44.801Z,11.00
2022-11-03T02:31:44.789Z,10.96
2022-11-03T02:32:44.751Z,10.92
2022-11-03T02:33:44.759Z,10.84
2022-11-03T02:34:44.733Z,10.90
2022-11-03T02:35:44.725Z,10.90
2022-11-03T02:36:44.736Z,10.96
2022-11-03T02:37:44.713Z,10.90
2022-11-03T02:38:44.695Z,10.82
2022-11-03T02:39:44.672Z,10.92
2022-11-03T02:40:44.680Z,10.87
2022-11-03T02:41:44.646Z,10.92
2022-11-03T02:42:44.629Z,10.93
2022-11-03T02:43:44.637Z,10.89
2022-11-03T02:44:44.665Z,10.92
2022-11-03T02:45:44.655Z,10.89
2022-11-03T02:46:44.585Z,10.90
2022-11-03T02:47:44.582Z,10.99
2022-11-03T02:48:44.575Z,10.93
2022-11-03T02:49:44.600Z,11.07
2022-11-03T02:50:44.571Z,10.96
2022-11-03T02:51:44.552Z,10.97
2022-11-03T02:52:44.543Z,10.99
2022-11-03T02:53:44.520Z,11.10
2022-11-03T02:54:44.499Z,11.02
2022-11-03T02:55:44.502Z,11.08
2022-11-03T02:56:44.520Z,11.12
2022-11-03T02:57:44.464Z,11.14
2022-11-03T02:58:44.479Z,11.00
2022-11-03T02:59:44.466Z,11.04
2022-11-03T03:00:44.473Z,11.08
2022-11-03T03:01:44.691Z,10.99
2022-11-03T03:02:44.450Z,11.05
2022-11-03T03:03:44.400Z,11.05
2022-11-03T03:04:44.391Z,11.10
2022-11-03T03:05:44.380Z,11.02
2022-11-03T03:06:44.419Z,11.08
2022-11-03T03:07:44.375Z,11.04
2022-11-03T03:08:44.360Z,11.00
2022-11-03T03:09:44.335Z,11.00
2022-11-03T03:10:44.330Z,11.08
2022-11-03T03:11:44.311Z,11.02
2022-11-03T03:12:44.316Z,11.08
2022-11-03T03:13:44.318Z,11.08
2022-11-03T03:14:44.281Z,11.12
2022-11-03T03:15:44.270Z,11.02
2022-11-03T03:16:44.274Z,11.10
2022-11-03T03:17:44.271Z,11.02
2022-11-03T03:18:44.247Z,11.00
2022-11-03T03:19:44.247Z,11.02
2022-11-03T03:20:44.210Z,11.00
2022-11-03T03:21:44.269Z,10.90
2022-11-03T03:22:44.209Z,11.00
2022-11-03T03:23:44.189Z,10.86
2022-11-03T03:24:44.204Z,10.84
2022-11-03T03:25:44.159Z,10.89
2022-11-03T03:26:44.144Z,10.89
2022-11-03T03:27:44.147Z,10.86
2022-11-03T03:28:44.157Z,10.84
2022-11-03T03:29:44.139Z,10.87
2022-11-03T03:30:44.154Z,10.93
2022-11-03T03:31:44.095Z,10.87
2022-11-03T03:32:44.104Z,10.92
2022-11-03T03:33:47.532Z,10.82
2022-11-03T03:34:44.061Z,10.92
2022-11-03T03:35:44.056Z,10.90
2022-11-03T03:36:44.076Z,10.87
2022-11-03T03:37:44.063Z,10.89
2022-11-03T03:38:44.016Z,10.89
2022-11-03T03:39:44.014Z,10.87
2022-11-03T03:40:44.028Z,10.86
2022-11-03T03:41:43.993Z,10.84
2022-11-03T03:42:44.005Z,10.84
2022-11-03T03:43:43.967Z,10.78
2022-11-03T03:44:43.948Z,10.89
2022-11-03T03:45:43.961Z,10.78
2022-11-03T03:46:43.925Z,10.79
2022-11-03T03:47:43.934Z,10.81
2022-11-03T03:48:43.903Z,10.84
2022-11-03T03:49:43.902Z,10.81
2022-11-03T03:50:43.887Z,10.76
2022-11-03T03:51:43.871Z,10.84
2022-11-03T03:52:43.871Z,10.82
2022-11-03T03:53:43.870Z,10.84
2022-11-03T03:54:43.836Z,10.84
2022-11-03T03:55:43.824Z,10.81
2022-11-03T03:56:43.838Z,10.87
2022-11-03T03:57:43.830Z,10.87
2022-11-03T03:58:43.808Z,10.78
2022-11-03T03:59:43.792Z,10.86
2022-11-03T04:00:43.800Z,10.86
2022-11-03T04:01:43.891Z,10.89
2022-11-03T04:02:43.758Z,10.89
2022-11-03T04:03:43.737Z,10.84
2022-11-03T04:04:43.753Z,10.92
2022-11-03T04:05:43.720Z,10.89
2022-11-03T04:06:43.724Z,10.87
2022-11-03T04:07:43.933Z,10.86
2022-11-03T04:08:43.704Z,10.89
2022-11-03T04:09:43.673Z,10.89
2022-11-03T04:10:43.689Z,10.96
2022-11-03T04:11:43.692Z,10.93
2022-11-03T04:12:43.672Z,10.94
2022-11-03T04:13:43.635Z,10.94
2022-11-03T04:14:43.643Z,11.00
2022-11-03T04:15:43.612Z,10.89
2022-11-03T04:16:43.623Z,11.00
2022-11-03T04:17:43.658Z,10.96
2022-11-03T04:18:43.572Z,10.99
2022-11-03T04:19:43.571Z,10.99
2022-11-03T04:20:43.554Z,11.00
2022-11-03T04:21:43.547Z,11.07
2022-11-03T04:22:43.562Z,11.07
2022-11-03T04:23:43.520Z,11.05
2022-11-03T04:24:43.506Z,11.00
2022-11-03T04:25:43.514Z,11.02
2022-11-03T04:26:43.506Z,11.02
2022-11-03T04:27:43.491Z,10.96
2022-11-03T04:28:43.496Z,10.92
2022-11-03T04:29:43.473Z,10.94
2022-11-03T04:30:43.447Z,10.92
2022-11-03T04:31:43.450Z,10.94
2022-11-03T04:32:43.427Z,10.93
2022-11-03T04:33:43.451Z,10.97
2022-11-03T04:34:43.452Z,10.90
2022-11-03T04:35:43.385Z,10.90
2022-11-03T04:36:43.372Z,10.87
2022-11-03T04:37:47.465Z,10.92
2022-11-03T04:38:43.389Z,10.97
2022-11-03T04:40:43.329Z,10.87
2022-11-03T04:41:43.319Z,10.74
2022-11-03T04:42:43.308Z,10.72
2022-11-03T04:43:43.340Z,10.72
2022-11-03T04:44:43.307Z,10.71
2022-11-03T04:45:43.300Z,10.68
2022-11-03T04:46:43.292Z,10.71
2022-11-03T04:47:43.260Z,10.61
2022-11-03T04:48:43.268Z,10.69
2022-11-03T04:49:43.240Z,10.76
2022-11-03T04:50:46.755Z,10.60
2022-11-03T04:51:43.207Z,10.69
2022-11-03T04:52:43.210Z,10.59
2022-11-03T04:53:43.210Z,10.57
2022-11-03T04:54:43.182Z,10.54
2022-11-03T04:55:43.177Z,10.60
2022-11-03T04:56:43.207Z,10.59
2022-11-03T04:57:43.141Z,10.54
2022-11-03T04:58:43.132Z,10.49
2022-11-03T04:59:43.128Z,10.56
2022-11-03T05:00:43.222Z,10.54
2022-11-03T05:01:43.402Z,10.46
2022-11-03T05:02:43.112Z,10.54
2022-11-03T05:03:43.077Z,10.57
2022-11-03T05:04:43.068Z,10.53
2022-11-03T05:05:43.058Z,10.57
2022-11-03T05:06:43.075Z,10.56
2022-11-03T05:07:43.086Z,10.53
2022-11-03T05:08:43.031Z,10.44
2022-11-03T05:09:43.154Z,10.40
2022-11-03T05:10:43.000Z,10.30
2022-11-03T05:11:42.990Z,10.37
2022-11-03T05:12:42.980Z,10.28
2022-11-03T05:13:43.068Z,10.35
2022-11-03T05:14:42.977Z,10.26
2022-11-03T05:15:42.945Z,10.28
2022-11-03T05:16:42.960Z,10.26
2022-11-03T05:17:42.930Z,10.31
2022-11-03T05:18:42.910Z,10.30
2022-11-03T05:19:42.921Z,10.31
2022-11-03T05:20:42.909Z,10.31
2022-11-03T05:21:42.913Z,10.26
2022-11-03T05:22:42.876Z,10.17
2022-11-03T05:23:42.863Z,10.20
2022-11-03T05:24:42.872Z,10.34
2022-11-03T05:25:42.834Z,10.25
2022-11-03T05:26:42.826Z,10.20
2022-11-03T05:27:42.820Z,10.25
2022-11-03T05:28:42.839Z,10.19
2022-11-03T05:29:42.805Z,10.26
2022-11-03T05:30:42.780Z,10.33
2022-11-03T05:31:42.778Z,10.30
2022-11-03T05:32:42.776Z,10.26
2022-11-03T05:33:42.785Z,10.22
2022-11-03T05:34:42.751Z,10.26
2022-11-03T05:35:42.749Z,10.30
2022-11-03T05:36:42.717Z,10.20
2022-11-03T05:37:42.721Z,10.26
2022-11-03T05:38:42.716Z,10.30
2022-11-03T05:39:42.682Z,10.28
2022-11-03T05:40:42.705Z,10.33
2022-11-03T05:41:42.662Z,10.33
2022-11-03T05:42:42.663Z,10.26
2022-11-03T05:43:42.667Z,10.34
2022-11-03T05:44:42.624Z,10.35
2022-11-03T05:45:42.625Z,10.35
2022-11-03T05:46:42.619Z,10.30
2022-11-03T05:47:42.618Z,10.35
2022-11-03T05:48:42.604Z,10.28
2022-11-03T05:49:42.609Z,10.35
2022-11-03T05:50:42.572Z,10.30
2022-11-03T05:51:42.548Z,10.37
2022-11-03T05:52:42.542Z,10.40
2022-11-03T05:53:42.546Z,10.34
2022-11-03T05:54:42.517Z,10.37
2022-11-03T05:55:42.531Z,10.34
2022-11-03T05:56:42.493Z,10.35
2022-11-03T05:57:42.484Z,10.34
2022-11-03T05:58:42.492Z,10.34
2022-11-03T05:59:42.462Z,10.38
2022-11-03T06:00:48.196Z,10.35
2022-11-03T06:01:42.578Z,10.44
2022-11-03T06:02:42.474Z,10.42
2022-11-03T06:03:42.428Z,10.41
2022-11-03T06:04:42.432Z,10.48
2022-11-03T06:05:42.397Z,10.40
2022-11-03T06:06:42.390Z,10.31
2022-11-03T06:07:42.406Z,10.23
2022-11-03T06:08:44.992Z,10.30
2022-11-03T06:09:42.350Z,10.34
2022-11-03T06:10:42.340Z,10.37
2022-11-03T06:11:42.359Z,10.33
2022-11-03T06:12:42.339Z,10.49
2022-11-03T06:13:42.312Z,10.31
2022-11-03T06:14:42.305Z,10.35
2022-11-03T06:15:42.284Z,10.37
2022-11-03T06:16:42.277Z,10.42
2022-11-03T06:17:42.286Z,10.46
2022-11-03T06:18:42.262Z,10.57
2022-11-03T06:19:42.247Z,10.41
2022-11-03T06:20:42.256Z,10.44
2022-11-03T06:21:44.706Z,10.46
2022-11-03T06:22:42.233Z,10.57
2022-11-03T06:23:42.212Z,10.54
2022-11-03T06:24:42.199Z,10.54
2022-11-03T06:25:42.176Z,10.60
2022-11-03T06:26:42.179Z,10.54
2022-11-03T06:27:42.199Z,10.54
2022-11-03T06:28:42.144Z,10.63
2022-11-03T06:29:42.215Z,10.56
2022-11-03T06:31:42.124Z,10.67
2022-11-03T06:32:42.119Z,10.64
2022-11-03T06:33:42.101Z,10.63
2022-11-03T06:34:42.112Z,10.74
2022-11-03T06:35:42.081Z,10.67
2022-11-03T06:36:42.073Z,10.75
2022-11-03T06:37:42.081Z,10.74
2022-11-03T06:38:42.034Z,10.71
2022-11-03T06:39:42.040Z,10.76
2022-11-03T06:40:42.016Z,10.72
2022-11-03T06:41:42.019Z,10.75
2022-11-03T06:42:41.995Z,10.78
2022-11-03T06:43:41.997Z,10.79
2022-11-03T06:44:41.971Z,10.79
2022-11-03T06:45:41.977Z,10.79
2022-11-03T06:46:41.993Z,10.89
2022-11-03T06:47:41.952Z,10.81
2022-11-03T06:48:41.959Z,10.72
2022-11-03T06:49:41.914Z,10.78
2022-11-03T06:50:44.846Z,10.90
2022-11-03T06:51:41.894Z,10.84
2022-11-03T06:52:42.011Z,10.81
2022-11-03T06:53:41.883Z,10.90
2022-11-03T06:54:41.886Z,10.81
2022-11-03T06:55:41.848Z,10.92
2022-11-03T06:56:41.841Z,10.90
2022-11-03T06:57:41.830Z,10.90
2022-11-03T06:58:41.851Z,10.92
2022-11-03T06:59:41.832Z,10.89
2022-11-03T07:00:45.890Z,10.92
2022-11-03T07:01:41.924Z,10.90
2022-11-03T07:02:41.919Z,10.92
2022-11-03T07:03:41.794Z,10.93
2022-11-03T07:04:41.768Z,11.02
2022-11-03T07:05:41.830Z,10.89
2022-11-03T07:06:41.760Z,10.97
2022-11-03T07:07:41.718Z,10.96
2022-11-03T07:08:41.749Z,11.05
2022-11-03T07:09:41.710Z,11.04
2022-11-03T07:10:41.695Z,11.04
2022-11-03T07:11:41.699Z,11.02
2022-11-03T07:12:41.665Z,11.12
2022-11-03T07:13:41.676Z,11.04
2022-11-03T07:14:41.656Z,11.11
2022-11-03T07:15:41.631Z,10.99
2022-11-03T07:16:41.682Z,11.14
2022-11-03T07:17:41.649Z,11.05
2022-11-03T07:18:41.601Z,11.19
2022-11-03T07:19:41.610Z,11.19
2022-11-03T07:20:41.584Z,11.25
2022-11-03T07:21:41.604Z,11.30
2022-11-03T07:22:41.572Z,11.25
2022-11-03T07:23:44.683Z,11.27
2022-11-03T07:24:41.588Z,11.29
2022-11-03T07:25:41.573Z,11.26
2022-11-03T07:26:41.535Z,11.27
2022-11-03T07:27:41.513Z,11.25
2022-11-03T07:28:41.560Z,11.26
2022-11-03T07:29:41.534Z,11.30
2022-11-03T07:30:41.473Z,11.35
2022-11-03T07:31:41.483Z,11.47
2022-11-03T07:32:41.463Z,11.48
2022-11-03T07:33:41.450Z,11.40
2022-11-03T07:34:41.456Z,11.44
2022-11-03T07:36:13.096Z,11.48
2022-11-03T07:36:42.419Z,11.44
2022-11-03T07:37:41.401Z,11.43
2022-11-03T07:38:41.381Z,11.43
2022-11-03T07:39:41.392Z,11.50
2022-11-03T07:40:41.419Z,11.54
2022-11-03T07:41:41.369Z,11.59
2022-11-03T07:42:41.343Z,11.51
2022-11-03T07:43:41.350Z,11.51
2022-11-03T07:44:41.357Z,11.47
2022-11-03T07:45:41.327Z,11.51
2022-11-03T07:46:41.295Z,11.52
2022-11-03T07:47:41.282Z,11.65
2022-11-03T07:48:41.273Z,11.65
2022-11-03T07:49:41.284Z,11.63
2022-11-03T07:50:41.257Z,11.65
2022-11-03T07:51:41.279Z,11.72
2022-11-03T07:52:41.275Z,11.63
2022-11-03T07:53:41.215Z,11.65
2022-11-03T07:54:41.212Z,11.87
2022-11-03T07:55:41.242Z,11.78
2022-11-03T07:56:41.237Z,11.80
2022-11-03T07:57:41.207Z,11.88
2022-11-03T07:58:41.201Z,11.88
2022-11-03T07:59:41.169Z,11.84
2022-11-03T08:00:41.152Z,11.94
2022-11-03T08:01:41.275Z,12.03
2022-11-03T08:02:41.217Z,12.02
2022-11-03T08:03:41.126Z,12.00
2022-11-03T08:04:41.098Z,12.07
2022-11-03T08:05:41.095Z,11.97
2022-11-03T08:06:41.099Z,12.12
2022-11-03T08:07:41.068Z,12.12
2022-11-03T08:08:41.061Z,12.17
2022-11-03T08:09:41.073Z,12.25
2022-11-03T08:10:41.034Z,12.27
2022-11-03T08:11:41.053Z,12.21
2022-11-03T08:12:41.051Z,12.27
2022-11-03T08:13:41.006Z,12.36
2022-11-03T08:14:41.011Z,12.35
2022-11-03T08:15:40.977Z,12.42
2022-11-03T08:16:40.966Z,12.42
2022-11-03T08:17:41.231Z,12.45
2022-11-03T08:18:40.964Z,12.54
2022-11-03T08:19:40.946Z,12.54
2022-11-03T08:20:40.947Z,12.49
2022-11-03T08:21:40.915Z,12.50
2022-11-03T08:22:46.069Z,12.39
2022-11-03T08:23:44.626Z,12.54
2022-11-03T08:24:40.918Z,12.64
2022-11-03T08:25:40.931Z,12.61
2022-11-03T08:26:40.863Z,12.76
2022-11-03T08:27:40.856Z,12.80
2022-11-03T08:28:40.857Z,12.83
2022-11-03T08:29:40.833Z,12.87
2022-11-03T08:30:40.845Z,12.78
2022-11-03T08:31:40.827Z,12.93
2022-11-03T08:32:40.835Z,12.87
2022-11-03T08:33:40.912Z,12.86
2022-11-03T08:34:40.768Z,12.91
2022-11-03T08:35:40.783Z,12.98
2022-11-03T08:36:40.764Z,12.94
2022-11-03T08:37:40.749Z,12.91
2022-11-03T08:38:40.751Z,12.85
2022-11-03T08:39:40.760Z,12.98
2022-11-03T08:40:40.721Z,12.91
2022-11-03T08:41:40.699Z,13.04
2022-11-03T08:42:40.707Z,12.94
2022-11-03T08:43:40.694Z,12.94
2022-11-03T08:44:40.719Z,13.12
2022-11-03T08:45:40.656Z,13.08
2022-11-03T08:46:40.646Z,13.00
2022-11-03T08:47:40.643Z,13.19
2022-11-03T08:48:40.656Z,13.27
2022-11-03T08:49:40.605Z,13.27
2022-11-03T08:50:40.616Z,13.30
2022-11-03T08:51:44.370Z,13.31
2022-11-03T08:52:40.569Z,13.38
2022-11-03T08:53:40.587Z,13.49
2022-11-03T08:54:40.608Z,13.46
2022-11-03T08:55:40.543Z,13.54
2022-11-03T08:56:40.639Z,13.52
2022-11-03T08:57:40.521Z,13.53
2022-11-03T08:58:40.508Z,13.56
2022-11-03T08:59:40.513Z,13.65
2022-11-03T09:00:41.298Z,13.62
2022-11-03T09:01:40.556Z,13.60
2022-11-03T09:02:40.548Z,13.65
2022-11-03T09:03:40.519Z,13.72
2022-11-03T09:04:40.452Z,13.71
2022-11-03T09:05:40.441Z,13.81
2022-11-03T09:06:40.427Z,13.92
2022-11-03T09:10:42.634Z,13.87
2022-11-03T09:11:40.387Z,13.89
2022-11-03T09:12:40.363Z,14.00
2022-11-03T09:13:40.359Z,14.03
2022-11-03T09:14:40.364Z,14.04
2022-11-03T09:15:40.327Z,13.92
2022-11-03T09:16:40.364Z,14.05
2022-11-03T09:17:43.190Z,14.11
2022-11-03T09:18:40.307Z,14.07
2022-11-03T09:19:40.295Z,13.97
2022-11-03T09:20:40.270Z,14.07
2022-11-03T09:21:40.256Z,14.08
2022-11-03T09:22:40.244Z,14.20
2022-11-03T09:23:40.243Z,14.07
2022-11-03T09:24:40.236Z,14.07
2022-11-03T09:25:40.330Z,13.97
2022-11-03T09:26:40.197Z,14.03
2022-11-03T09:27:40.184Z,14.04
2022-11-03T09:28:40.173Z,14.00
2022-11-03T09:30:06.702Z,14.07
2022-11-03T09:30:40.230Z,14.03
2022-11-03T09:31:40.146Z,14.07
2022-11-03T09:32:40.155Z,14.04
2022-11-03T09:33:40.127Z,14.11
2022-11-03T09:34:40.126Z,14.15
2022-11-03T09:35:40.107Z,14.23
2022-11-03T09:36:40.104Z,14.17
2022-11-03T09:37:40.119Z,14.26
2022-11-03T09:38:40.090Z,14.29
2022-11-03T09:39:40.120Z,14.25
2022-11-03T09:40:40.128Z,14.25
2022-11-03T09:41:57.932Z,14.30
2022-11-03T09:42:41.033Z,14.29
2022-11-03T09:43:40.013Z,14.28
2022-11-03T09:44:40.128Z,14.26
2022-11-03T09:45:40.021Z,14.22
2022-11-03T09:46:39.975Z,14.33
2022-11-03T09:47:39.970Z,14.36
2022-11-03T09:48:39.986Z,14.44
2022-11-03T09:49:39.946Z,14.45
2022-11-03T09:50:40.000Z,14.50
2022-11-03T09:51:39.952Z,14.47
2022-11-03T09:52:39.915Z,14.60
2022-11-03T09:53:39.905Z,14.55
2022-11-03T09:54:39.955Z,14.65
2022-11-03T09:55:39.904Z,14.62
2022-11-03T09:56:39.945Z,14.68
2022-11-03T09:57:39.879Z,14.66
2022-11-03T09:58:39.870Z,14.72
2022-11-03T09:59:39.843Z,14.73
2022-11-03T10:00:39.898Z,14.69
2022-11-03T10:01:40.061Z,14.63
2022-11-03T10:02:39.801Z,14.66
2022-11-03T10:03:39.797Z,14.77
2022-11-03T10:04:39.811Z,14.69
2022-11-03T10:05:39.781Z,14.73
2022-11-03T10:06:39.757Z,14.84
2022-11-03T10:07:39.753Z,14.88
2022-11-03T10:08:39.802Z,14.73
2022-11-03T10:09:39.747Z,14.70
2022-11-03T10:10:39.840Z,14.70
2022-11-03T10:11:39.716Z,14.79
2022-11-03T10:12:39.694Z,14.91
2022-11-03T10:13:39.744Z,14.79
2022-11-03T10:14:39.675Z,14.97
2022-11-03T10:15:39.725Z,15.06
2022-11-03T10:16:39.650Z,14.94
2022-11-03T10:17:39.637Z,15.03
2022-11-03T10:18:39.636Z,15.02
2022-11-03T10:19:39.624Z,15.07
2022-11-03T10:20:39.683Z,15.07
2022-11-03T10:21:39.706Z,15.03
2022-11-03T10:22:41.116Z,15.07
2022-11-03T10:23:39.570Z,15.04
2022-11-03T10:24:40.663Z,15.14
2022-11-03T10:25:40.131Z,15.10
2022-11-03T10:26:39.565Z,15.22
2022-11-03T10:27:39.529Z,15.19
2022-11-03T10:28:39.528Z,15.19
2022-11-03T10:29:40.532Z,15.19
2022-11-03T10:30:58.116Z,15.18
2022-11-03T10:31:40.519Z,15.18
2022-11-03T10:32:39.485Z,15.24
2022-11-03T10:33:39.470Z,15.36
2022-11-03T10:34:39.486Z,15.35
2022-11-03T10:35:39.444Z,15.35
2022-11-03T10:36:39.490Z,15.36
2022-11-03T10:37:39.451Z,15.17
2022-11-03T10:38:39.406Z,15.25
2022-11-03T10:39:39.527Z,15.31
2022-11-03T10:40:47.730Z,15.42
2022-11-03T10:41:40.383Z,15.43
2022-11-03T10:42:39.363Z,15.47
2022-11-03T10:43:39.368Z,15.52
2022-11-03T10:44:39.357Z,15.55
2022-11-03T10:45:39.372Z,15.49
2022-11-03T10:46:54.772Z,15.57
2022-11-03T10:47:40.309Z,15.61
2022-11-03T10:48:39.298Z,15.72
2022-11-03T10:49:43.482Z,15.70
2022-11-03T10:50:39.284Z,15.57
2022-11-03T10:51:39.286Z,15.68
2022-11-03T10:52:39.281Z,15.75
2022-11-03T10:53:39.252Z,15.70
2022-11-03T10:54:39.274Z,15.75
2022-11-03T10:56:40.068Z,15.80
2022-11-03T10:57:39.216Z,15.88
2022-11-03T10:58:39.199Z,15.84
2022-11-03T10:59:39.208Z,15.82
2022-11-03T11:00:39.257Z,15.79
2022-11-03T11:01:39.291Z,15.83
2022-11-03T11:02:39.185Z,15.84
2022-11-03T11:03:39.131Z,15.88
2022-11-03T11:04:39.169Z,15.92
2022-11-03T11:05:39.173Z,15.98
2022-11-03T11:06:39.109Z,16.08
2022-11-03T11:07:39.165Z,16.09
2022-11-03T11:08:39.186Z,16.17
2022-11-03T11:09:39.066Z,16.16
2022-11-03T11:10:39.098Z,16.20
2022-11-03T11:11:39.051Z,16.17
2022-11-03T11:12:39.051Z,16.28
2022-11-03T11:13:39.022Z,16.16
2022-11-03T11:14:39.018Z,16.24
2022-11-03T11:15:39.129Z,16.32
2022-11-03T11:16:38.997Z,16.41
2022-11-03T11:17:38.990Z,16.42
2022-11-03T11:18:39.066Z,16.43
2022-11-03T11:19:38.970Z,16.39
2022-11-03T11:20:38.971Z,16.54
2022-11-03T11:21:38.971Z,16.50
2022-11-03T11:22:38.975Z,16.53
2022-11-03T11:23:38.982Z,16.51
2022-11-03T11:24:38.942Z,16.47
2022-11-03T11:25:38.897Z,16.53
2022-11-03T11:26:38.916Z,16.46
2022-11-03T11:27:38.949Z,16.53
2022-11-03T11:28:38.857Z,16.60
2022-11-03T11:29:38.864Z,16.58
2022-11-03T11:30:38.870Z,16.61
2022-11-03T11:31:38.842Z,16.69
2022-11-03T11:32:38.826Z,16.71
2022-11-03T11:33:38.800Z,16.76
2022-11-03T11:34:38.805Z,16.61
2022-11-03T11:35:38.796Z,16.64
2022-11-03T11:36:38.778Z,16.58
2022-11-03T11:37:38.762Z,16.65
2022-11-03T11:38:38.768Z,16.69
2022-11-03T11:39:38.735Z,16.71
2022-11-03T11:40:38.760Z,16.74
2022-11-03T11:41:38.756Z,16.76
2022-11-03T11:42:38.916Z,16.81
2022-11-03T11:43:38.709Z,16.84
2022-11-03T11:44:38.678Z,16.84
2022-11-03T11:45:38.671Z,16.97
2022-11-03T11:46:38.681Z,16.89
2022-11-03T11:47:39.048Z,17.01
2022-11-03T11:48:38.641Z,16.90
2022-11-03T11:49:38.636Z,17.04
2022-11-03T11:50:38.647Z,17.06
2022-11-03T11:51:38.601Z,17.01
2022-11-03T11:52:38.612Z,17.11
2022-11-03T11:53:38.579Z,17.19
2022-11-03T11:54:38.579Z,17.19
2022-11-03T11:55:38.595Z,17.20
2022-11-03T11:56:38.561Z,17.19
2022-11-03T11:57:38.542Z,17.27
2022-11-03T11:58:38.530Z,17.12
2022-11-03T11:59:38.546Z,17.09
2022-11-03T12:00:38.610Z,17.19
2022-11-03T12:01:38.529Z,17.08
2022-11-03T12:02:38.515Z,17.12
2022-11-03T12:03:38.668Z,17.24
2022-11-03T12:04:38.474Z,17.29
2022-11-03T12:05:38.446Z,17.26
2022-11-03T12:06:38.539Z,17.30
2022-11-03T12:07:38.425Z,17.31
2022-11-03T12:08:38.430Z,17.33
2022-11-03T12:09:38.430Z,17.27
2022-11-03T12:10:38.390Z,17.30
2022-11-03T12:11:38.399Z,17.24
2022-11-03T12:12:38.389Z,17.31
2022-11-03T12:13:38.363Z,17.42
2022-11-03T12:14:38.411Z,17.27
2022-11-03T12:15:38.338Z,17.19
2022-11-03T12:16:38.330Z,17.15
2022-11-03T12:17:38.326Z,17.19
2022-11-03T12:18:41.610Z,17.26
2022-11-03T12:19:38.297Z,17.20
2022-11-03T12:20:38.297Z,17.15
2022-11-03T12:21:38.304Z,17.30
2022-11-03T12:22:38.262Z,17.16
2022-11-03T12:23:38.267Z,17.30
2022-11-03T12:24:38.256Z,17.38
2022-11-03T12:25:38.228Z,17.31
2022-11-03T12:26:38.238Z,17.31
2022-11-03T12:27:38.223Z,17.33
2022-11-03T12:28:38.214Z,17.31
2022-11-03T12:29:38.202Z,17.46
2022-11-03T12:30:39.986Z,17.45
2022-11-03T12:31:38.201Z,17.49
2022-11-03T12:32:38.179Z,17.46
2022-11-03T12:33:38.165Z,17.49
2022-11-03T12:34:38.137Z,17.49
2022-11-03T12:35:38.141Z,17.52
2022-11-03T12:36:38.106Z,17.51
2022-11-03T12:37:38.095Z,17.52
2022-11-03T12:38:38.114Z,17.49
2022-11-03T12:39:38.086Z,17.57
2022-11-03T12:40:38.064Z,17.48
2022-11-03T12:41:38.064Z,17.48
2022-11-03T12:42:38.043Z,17.42
2022-11-03T12:43:38.053Z,17.54
2022-11-03T12:44:42.786Z,17.63
2022-11-03T12:45:39.024Z,17.48
2022-11-03T12:46:38.016Z,17.52
2022-11-03T12:47:38.015Z,17.56
2022-11-03T12:48:37.977Z,17.49
2022-11-03T12:49:37.974Z,17.44
2022-11-03T12:50:37.986Z,17.49
2022-11-03T12:51:37.963Z,17.51
2022-11-03T12:52:37.955Z,17.34
2022-11-03T12:53:38.065Z,17.29
2022-11-03T12:54:37.913Z,17.36
2022-11-03T12:55:39.375Z,17.38
2022-11-03T12:56:37.891Z,17.39
2022-11-03T12:57:37.984Z,17.38
2022-11-03T12:58:37.886Z,17.36